Terminal Aerodrome Forecast
Issued by NWS Grand Forks, ND

Home | Current Version | Previous Version | Text Only | Print | Product List | Glossary Off
Versions: 1 2 3 4 5 6 7 8 9 10 11 12 13 14 15

000
FTUS43 KFGF 150654 AAA
TAFFAR
TAF AMD
KFAR 150654Z 1507/1606 34015KT P6SM OVC015
      TEMPO 1507/1509 OVC009
     FM150900 35013G22KT P6SM OVC009
     FM151100 34017G26KT 4SM -SN BLSN OVC015
     FM151400 34019G29KT 5SM BLSN OVC020
     FM152000 34020G30KT P6SM BKN040
     FM152300 34017KT P6SM BKN200=

USA.gov is the U.S. government's official web portal to all federal, state and local government web resources and services.